Terminal Aerodrome Forecast
Issued by NWS Upton, NY

Home | Current Version | Previous Version | Text Only | Print | Product List | Glossary On
Versions: 1 2 3 4 5 6 7 8 9 10 11 12 13 14 15 16 17 18 19 20 21 22 23 24 25 26 27 28
000
FTUS41 KOKX 222000 AAA
TAFJFK
TAF AMD
KJFK 222030Z 2221/2324 07010KT P6SM SCT008 OVC015
     FM222300 07010KT 5SM -RA BR OVC008
     FM230200 07012KT 3SM -RA BR OVC005
     FM231300 06010KT 2SM -DZ BR BKN005 OVC009
     FM232200 04006KT 2SM -DZ BR OVC005=

USA.gov is the U.S. government's official web portal to all federal, state and local government web resources and services.